Huvudsida
METAR-TAF:

METAR-TAF

Flygplatser :

Caracas, Venezuela

latitud: 10-36N, longitud: 066-59W, höjd: 43 m

Aktuellt väderrapport

Denna rapport gjordes för 33 minuter sedan, klockan 06:00 UTC
Stilla vind
Temperatur 25°C
Fuktighet 89%
Tryck 1011 hPa
Sikt 10 km eller mer
Få moln på en höjd av 1600 ft

METAR: SVMI 210600Z 00000KT 9999 FEW016 25/23 Q1011

Tid: 02:33 (06:33 UTC)

Väderprognos

Denna rapport gjordes för 2 timmar och 33 minuter sedan, klockan 04:00 UTC
Prognos gäller från 21 kl. 06 UTC till 22 kl. 06 UTC
Vind kt från nord
Sikt 10 km eller mer
Spridda moln på en höjd av 1600 ft
Temporärt
från 21 kl. 06 UTC till 21 kl. 10 UTC
Sikt: 9000 m
Brutna moln på en höjd av 1600 ft
duggregn

TAF: SVMI 210400Z 2106/2206 00000KT 9999 SCT016 TX33/18Z TN25/08Z TEMPO 2106/2110 9000 DZ BKN016

Aktuella väderrapporter och prognoser från 4000 flygplatser (METAR- och TAF-rapporter).

De tillgängliga stationerna syns som gula och röda prickar på kartan.

För musen över prickarna för att se namnen på stationerna.

Klicka sedan för att få väderrapporter och prognoser.

För att ändra kartan: Klicka på de gröna knapparna med ett svart kors på för att zooma in; den gröna knappen med ett streck på för att zooma ut; eller på de gröna pilarna för angränsande kartor.


METAR-TAF: